createdAt,value
2018-04-02T00:01:03.149Z,41.00
2018-04-02T00:03:32.227Z,48.53
2018-04-02T00:06:01.889Z,50.60
2018-04-02T00:08:31.869Z,47.27
2018-04-02T00:11:01.537Z,44.83
2018-04-02T00:13:30.933Z,48.37
2018-04-02T00:16:00.601Z,46.63
2018-04-02T00:18:29.549Z,48.43
2018-04-02T00:20:58.473Z,50.50
2018-04-02T00:23:28.141Z,48.03
2018-04-02T00:25:57.050Z,45.27
2018-04-02T00:28:26.759Z,47.13
2018-04-02T00:30:55.750Z,51.40
2018-04-02T00:33:24.757Z,44.97
2018-04-02T00:35:54.609Z,52.40
2018-04-02T00:38:23.517Z,46.57
2018-04-02T00:40:53.959Z,46.97
2018-04-02T00:43:23.647Z,49.40
2018-04-02T00:45:52.543Z,50.23
2018-04-02T00:48:21.874Z,45.90
2018-04-02T00:50:51.534Z,47.97
2018-04-02T00:53:21.237Z,45.80
2018-04-02T00:55:50.675Z,53.13
2018-04-02T00:58:19.593Z,48.87
2018-04-02T01:03:24.525Z,48.47
2018-04-02T01:05:53.830Z,42.10
2018-04-02T01:08:23.501Z,55.40
2018-04-02T01:10:52.432Z,41.33
2018-04-02T01:13:22.112Z,50.60
2018-04-02T01:15:51.081Z,42.43
2018-04-02T01:18:20.734Z,40.57
2018-04-02T01:20:50.428Z,47.17
2018-04-02T01:23:19.343Z,48.23
2018-04-02T01:25:49.079Z,46.87
2018-04-02T01:28:18.782Z,43.80
2018-04-02T01:30:48.448Z,47.30
2018-04-02T01:33:18.971Z,48.37
2018-04-02T01:35:47.874Z,48.50
2018-04-02T01:38:17.573Z,46.87
2018-04-02T01:40:46.506Z,43.53
2018-04-02T01:43:16.161Z,42.07
2018-04-02T01:45:45.855Z,45.80
2018-04-02T01:48:15.529Z,50.80
2018-04-02T01:50:45.218Z,40.67
2018-04-02T01:53:16.362Z,47.83
2018-04-02T01:55:46.278Z,44.53
2018-04-02T01:58:15.590Z,46.30
2018-04-02T02:00:45.302Z,44.37
2018-04-02T02:03:14.208Z,41.97
2018-04-02T02:05:43.125Z,51.67
2018-04-02T02:08:12.155Z,41.03
2018-04-02T02:10:41.153Z,37.57
2018-04-02T02:13:10.038Z,40.90
2018-04-02T02:15:39.738Z,39.20
2018-04-02T02:18:09.409Z,36.00
2018-04-02T02:20:38.348Z,34.13
2018-04-02T02:23:07.229Z,36.53
2018-04-02T02:25:36.143Z,37.87
2018-04-02T02:28:05.827Z,38.50
2018-04-02T02:30:35.133Z,34.00
2018-04-02T02:33:04.024Z,40.10
2018-04-02T02:35:33.708Z,35.80
2018-04-02T02:38:02.629Z,33.97
2018-04-02T02:40:31.516Z,38.23
2018-04-02T02:43:00.831Z,38.83
2018-04-02T02:45:30.528Z,32.90
2018-04-02T02:48:00.218Z,34.70
2018-04-02T02:50:29.110Z,35.20
2018-04-02T02:52:58.028Z,34.20
2018-04-02T02:55:27.322Z,36.30
2018-04-02T02:57:56.629Z,36.17
2018-04-02T03:00:26.329Z,31.90
2018-04-02T03:02:55.985Z,37.57
2018-04-02T03:05:24.909Z,33.97
2018-04-02T03:07:53.815Z,37.20
2018-04-02T03:10:23.469Z,32.47
2018-04-02T03:12:52.532Z,29.97
2018-04-02T03:15:22.197Z,33.00
2018-04-02T03:17:51.869Z,30.33
2018-04-02T03:20:20.779Z,33.67
2018-04-02T03:22:50.456Z,36.03
2018-04-02T03:25:19.367Z,30.20
2018-04-02T03:27:48.269Z,36.65
2018-04-02T03:30:17.160Z,27.60
2018-04-02T03:32:46.196Z,40.00
2018-04-02T03:35:15.089Z,35.07
2018-04-02T03:37:44.767Z,30.50
2018-04-02T03:40:13.693Z,31.87
2018-04-02T03:42:43.353Z,30.30
2018-04-02T03:45:12.254Z,36.37
2018-04-02T03:47:41.264Z,28.47
2018-04-02T03:50:10.176Z,32.23
2018-04-02T03:52:39.860Z,31.20
2018-04-02T03:55:09.188Z,32.73
2018-04-02T03:57:38.857Z,29.00
2018-04-02T04:00:08.424Z,27.90
2018-04-02T04:02:37.346Z,29.07
2018-04-02T04:05:07.017Z,36.97
2018-04-02T04:07:36.345Z,33.30
2018-04-02T04:10:05.645Z,36.47
2018-04-02T04:12:35.345Z,31.40
2018-04-02T04:15:04.270Z,34.37
2018-04-02T04:17:33.192Z,26.77
2018-04-02T04:20:02.521Z,30.80
2018-04-02T04:22:31.419Z,26.77
2018-04-02T04:25:00.338Z,27.23
2018-04-02T04:27:29.257Z,31.20
2018-04-02T04:29:58.944Z,31.10
2018-04-02T04:32:27.866Z,33.20
2018-04-02T04:34:57.523Z,36.13
2018-04-02T04:37:27.192Z,29.50
2018-04-02T04:39:56.163Z,34.80
2018-04-02T04:42:25.154Z,32.93
2018-04-02T04:44:54.438Z,35.00
2018-04-02T04:47:23.355Z,33.00
2018-04-02T04:49:52.305Z,34.47
2018-04-02T04:52:21.198Z,34.80
2018-04-02T04:54:50.895Z,36.87
2018-04-02T04:57:20.576Z,33.43
2018-04-02T04:59:50.269Z,36.07
2018-04-02T05:02:19.244Z,40.80
2018-04-02T05:04:48.519Z,30.33
2018-04-02T05:07:17.464Z,34.90
2018-04-02T05:09:46.376Z,36.37
2018-04-02T05:12:15.286Z,35.13
2018-04-02T05:14:44.735Z,36.87
2018-04-02T05:17:14.396Z,37.57
2018-04-02T05:19:43.320Z,37.00
2018-04-02T05:22:12.631Z,34.10
2018-04-02T05:24:41.929Z,33.97
2018-04-02T05:27:10.909Z,37.00
2018-04-02T05:29:39.822Z,36.30
2018-04-02T05:32:09.133Z,31.00
2018-04-02T05:34:38.821Z,33.57
2018-04-02T05:37:08.107Z,34.90
2018-04-02T05:39:37.801Z,42.40
2018-04-02T05:42:07.484Z,36.23
2018-04-02T05:44:36.424Z,31.50
2018-04-02T05:47:06.091Z,33.60
2018-04-02T05:49:34.985Z,29.23
2018-04-02T05:52:06.171Z,29.27
2018-04-02T05:54:36.441Z,35.80
2018-04-02T05:57:05.881Z,38.07
2018-04-02T05:59:34.793Z,34.33
2018-04-02T06:02:04.520Z,29.57
2018-04-02T06:04:33.444Z,30.30
2018-04-02T06:07:03.670Z,32.00
2018-04-02T06:09:33.905Z,36.40
2018-04-02T06:12:03.191Z,35.87
2018-04-02T06:14:32.208Z,31.80
2018-04-02T06:17:02.868Z,34.33
2018-04-02T06:19:31.799Z,27.67
2018-04-02T06:22:01.963Z,28.70
2018-04-02T06:24:31.879Z,27.77
2018-04-02T06:27:02.433Z,35.07
2018-04-02T06:29:31.776Z,31.43
2018-04-02T06:32:01.859Z,32.80
2018-04-02T06:34:30.869Z,29.57
2018-04-02T06:36:59.986Z,32.60
2018-04-02T06:39:30.321Z,32.70
2018-04-02T06:42:00.041Z,32.73
2018-04-02T06:44:29.002Z,30.00
2018-04-02T06:46:59.512Z,35.00
2018-04-02T06:49:28.485Z,36.30
2018-04-02T06:51:58.764Z,39.80
2018-04-02T06:54:27.786Z,32.00
2018-04-02T06:56:58.350Z,28.60
2018-04-02T06:59:27.304Z,31.87
2018-04-02T07:01:56.291Z,30.97
2018-04-02T07:04:25.279Z,33.37
2018-04-02T07:06:54.220Z,31.20
2018-04-02T07:09:23.161Z,31.83
2018-04-02T07:11:52.904Z,33.43
2018-04-02T07:14:22.479Z,30.70
2018-04-02T07:16:52.409Z,33.90
2018-04-02T07:19:23.211Z,31.10
2018-04-02T07:21:52.883Z,30.67
2018-04-02T07:24:22.489Z,39.70
2018-04-02T07:26:51.418Z,33.03
2018-04-02T07:29:20.397Z,31.03
2018-04-02T07:31:50.890Z,33.17
2018-04-02T07:34:19.799Z,27.50
2018-04-02T07:36:48.724Z,30.53
2018-04-02T07:39:18.431Z,25.53
2018-04-02T07:41:47.737Z,32.20
2018-04-02T07:44:18.718Z,26.87
2018-04-02T07:46:48.960Z,28.80
2018-04-02T07:49:19.649Z,23.30
2018-04-02T07:51:49.363Z,23.37
2018-04-02T07:54:19.692Z,22.63
2018-04-02T07:56:49.978Z,22.37
2018-04-02T07:59:19.704Z,22.40
2018-04-02T08:01:49.788Z,21.40
2018-04-02T08:04:19.540Z,21.30
2018-04-02T08:06:49.896Z,16.40
2018-04-02T08:09:20.105Z,14.87
2018-04-02T08:11:49.504Z,19.80
2018-04-02T08:14:18.976Z,15.60
2018-04-02T08:16:49.077Z,17.50
2018-04-02T08:19:19.587Z,15.00
2018-04-02T08:21:48.600Z,16.57
2018-04-02T08:24:18.333Z,13.77
2018-04-02T08:26:48.250Z,16.80
2018-04-02T08:29:18.931Z,17.97
2018-04-02T08:31:47.899Z,13.90
2018-04-02T08:34:16.879Z,18.10
2018-04-02T08:36:46.623Z,14.27
2018-04-02T08:39:15.584Z,9.67
2018-04-02T08:41:45.547Z,8.50
2018-04-02T08:44:14.456Z,9.07
2018-04-02T08:46:44.176Z,8.07
2018-04-02T08:49:14.297Z,8.97
2018-04-02T08:51:43.699Z,8.87
2018-04-02T08:54:13.508Z,6.20
2018-04-02T08:56:42.431Z,7.20
2018-04-02T08:59:11.374Z,8.77
2018-04-02T09:01:41.909Z,8.83
2018-04-02T09:04:10.854Z,11.03
2018-04-02T09:06:39.752Z,9.70
2018-04-02T09:09:09.663Z,10.50
2018-04-02T09:11:38.585Z,10.70
2018-04-02T09:14:07.550Z,10.20
2018-04-02T09:16:36.477Z,9.57
2018-04-02T09:19:06.617Z,9.43
2018-04-02T09:21:36.433Z,11.67
2018-04-02T09:24:05.323Z,12.23
2018-04-02T09:26:34.410Z,19.20
2018-04-02T09:29:03.362Z,13.17
2018-04-02T09:31:32.636Z,14.50
2018-04-02T09:34:02.342Z,12.83
2018-04-02T09:36:31.628Z,12.80
2018-04-02T09:39:00.928Z,9.83
2018-04-02T09:41:30.760Z,9.93
2018-04-02T09:43:59.668Z,11.03
2018-04-02T09:46:29.355Z,10.20
2018-04-02T09:49:00.061Z,10.93
2018-04-02T09:51:29.393Z,8.90
2018-04-02T09:53:58.331Z,9.40
2018-04-02T09:56:27.251Z,9.07
2018-04-02T09:58:56.148Z,8.17
2018-04-02T10:01:30.573Z,8.10
2018-04-02T10:04:00.239Z,10.27
2018-04-02T10:06:29.602Z,9.20
2018-04-02T10:08:59.478Z,9.37
2018-04-02T10:11:28.467Z,11.10
2018-04-02T10:13:58.377Z,10.33
2018-04-02T10:16:27.330Z,11.20
2018-04-02T10:18:57.138Z,10.80
2018-04-02T10:21:26.819Z,10.20
2018-04-02T10:23:55.865Z,12.20
2018-04-02T10:26:25.530Z,11.10
2018-04-02T10:28:55.308Z,10.23
2018-04-02T10:31:25.061Z,10.00
2018-04-02T10:33:54.041Z,11.50
2018-04-02T10:36:23.409Z,11.00
2018-04-02T10:38:53.259Z,11.63
2018-04-02T10:41:23.036Z,11.73
2018-04-02T10:43:52.022Z,12.37
2018-04-02T10:46:20.960Z,13.07
2018-04-02T10:48:50.659Z,16.80
2018-04-02T10:51:20.087Z,12.80
2018-04-02T10:53:49.990Z,13.87
2018-04-02T10:56:18.914Z,12.97
2018-04-02T10:58:49.477Z,16.80
2018-04-02T11:01:18.400Z,14.60
2018-04-02T11:03:48.082Z,16.20
2018-04-02T11:06:19.518Z,16.03
2018-04-02T11:08:48.432Z,14.50
2018-04-02T11:11:19.061Z,14.53
2018-04-02T11:13:49.339Z,16.70
2018-04-02T11:16:18.305Z,18.60
2018-04-02T11:18:48.459Z,14.60
2018-04-02T11:21:18.381Z,17.53
2018-04-02T11:23:50.520Z,15.00
2018-04-02T11:26:20.248Z,16.70
2018-04-02T11:28:49.167Z,14.30
2018-04-02T11:31:18.546Z,16.80
2018-04-02T11:33:47.485Z,17.00
2018-04-02T11:36:16.865Z,17.87
2018-04-02T11:38:47.400Z,18.53
2018-04-02T11:41:17.085Z,18.47
2018-04-02T11:43:46.567Z,15.20
2018-04-02T11:46:16.007Z,20.60
2018-04-02T11:48:45.773Z,15.33
2018-04-02T11:51:16.039Z,14.97
2018-04-02T11:53:45.746Z,21.13
2018-04-02T11:56:14.649Z,17.87
2018-04-02T11:58:44.717Z,18.03
2018-04-02T12:01:14.916Z,18.57
2018-04-02T12:03:45.301Z,16.63
2018-04-02T12:06:15.792Z,18.10
2018-04-02T12:08:44.733Z,18.73
2018-04-02T12:11:14.424Z,16.27
2018-04-02T12:13:44.450Z,20.30
2018-04-02T12:16:14.194Z,17.23
2018-04-02T12:18:43.805Z,19.10
2018-04-02T12:21:13.549Z,19.80
2018-04-02T12:23:42.553Z,20.65
2018-04-02T12:26:14.837Z,21.00
2018-04-02T12:28:44.177Z,21.50
2018-04-02T12:31:13.876Z,22.40
2018-04-02T12:33:42.841Z,21.77
2018-04-02T12:36:12.144Z,24.13
2018-04-02T12:38:41.117Z,23.27
2018-04-02T12:41:10.792Z,24.00
2018-04-02T12:43:39.819Z,25.57
2018-04-02T12:46:09.180Z,25.80
2018-04-02T12:48:42.507Z,29.77
2018-04-02T12:51:12.223Z,27.57
2018-04-02T12:53:41.532Z,28.67
2018-04-02T12:56:11.230Z,27.07
2018-04-02T12:58:40.525Z,27.40
2018-04-02T13:01:09.871Z,25.63
2018-04-02T13:03:38.789Z,22.77
2018-04-02T13:06:07.813Z,25.67
2018-04-02T13:08:37.520Z,25.53
2018-04-02T13:11:07.210Z,24.03
2018-04-02T13:13:36.127Z,31.13
2018-04-02T13:16:05.462Z,27.40
2018-04-02T13:18:34.491Z,22.33
2018-04-02T13:21:03.410Z,24.00
2018-04-02T13:23:33.212Z,24.83
2018-04-02T13:26:02.889Z,25.57
2018-04-02T13:28:33.334Z,20.73
2018-04-02T13:31:03.037Z,22.63
2018-04-02T13:33:31.974Z,20.53
2018-04-02T13:36:01.754Z,21.67
2018-04-02T13:38:31.062Z,17.20
2018-04-02T13:41:00.828Z,17.97
2018-04-02T13:43:29.694Z,18.13
2018-04-02T13:45:59.036Z,24.73
2018-04-02T13:48:27.972Z,23.37
2018-04-02T13:50:57.078Z,20.60
2018-04-02T13:53:26.041Z,26.50
2018-04-02T13:55:55.734Z,24.77
2018-04-02T13:58:25.064Z,24.00
2018-04-02T14:00:54.033Z,28.80
2018-04-02T14:03:23.379Z,27.30
2018-04-02T14:05:52.706Z,26.70
2018-04-02T14:08:21.671Z,25.00
2018-04-02T14:10:50.624Z,25.77
2018-04-02T14:13:19.512Z,33.13
2018-04-02T14:15:49.229Z,36.80
2018-04-02T14:18:18.155Z,32.67
2018-04-02T14:20:47.077Z,33.50
2018-04-02T14:23:16.780Z,41.43
2018-04-02T14:25:46.491Z,40.90
2018-04-02T14:28:15.832Z,39.53
2018-04-02T14:30:45.515Z,39.30
2018-04-02T14:33:14.854Z,38.73
2018-04-02T14:35:44.563Z,39.20
2018-04-02T14:38:14.673Z,43.00
2018-04-02T14:40:44.073Z,42.50
2018-04-02T14:43:13.761Z,46.77
2018-04-02T14:45:43.496Z,49.80
2018-04-02T14:48:12.427Z,43.20
2018-04-02T14:50:41.339Z,51.10
2018-04-02T14:53:10.313Z,44.03
2018-04-02T14:55:39.247Z,47.83
2018-04-02T14:58:08.589Z,43.10
2018-04-02T15:00:37.923Z,51.23
2018-04-02T15:03:07.961Z,51.73
2018-04-02T15:05:36.941Z,52.73
2018-04-02T15:08:06.644Z,60.70
2018-04-02T15:10:36.345Z,50.73
2018-04-02T15:13:05.695Z,49.63
2018-04-02T15:15:35.422Z,50.80
2018-04-02T15:20:39.802Z,54.17
2018-04-02T15:23:08.766Z,56.67
2018-04-02T15:25:39.212Z,57.90
2018-04-02T15:28:08.734Z,57.90
2018-04-02T15:30:38.363Z,58.17
2018-04-02T15:33:08.095Z,58.73
2018-04-02T15:35:37.610Z,54.63
2018-04-02T15:38:06.550Z,54.90
2018-04-02T15:40:36.845Z,54.50
2018-04-02T15:43:06.542Z,59.63
2018-04-02T15:45:36.539Z,54.50
2018-04-02T15:48:05.502Z,50.40
2018-04-02T15:50:34.450Z,60.00
2018-04-02T15:53:03.799Z,54.50
2018-04-02T15:55:32.862Z,61.67
2018-04-02T15:58:02.230Z,55.30
2018-04-02T16:00:31.975Z,50.13
2018-04-02T16:03:01.706Z,52.00
2018-04-02T16:05:30.670Z,51.80
2018-04-02T16:07:59.631Z,52.30
2018-04-02T16:10:29.733Z,51.50
2018-04-02T16:13:00.258Z,51.00
2018-04-02T16:15:29.204Z,50.20
2018-04-02T16:17:58.920Z,51.23
2018-04-02T16:20:28.608Z,47.13
2018-04-02T16:22:58.905Z,54.13
2018-04-02T16:25:27.920Z,51.90
2018-04-02T16:27:57.713Z,49.30
2018-04-02T16:30:26.679Z,50.60
2018-04-02T16:32:55.672Z,52.33
2018-04-02T16:35:25.421Z,49.40
2018-04-02T16:37:56.088Z,52.47
2018-04-02T16:40:26.784Z,49.40
2018-04-02T16:42:56.494Z,55.53
2018-04-02T16:45:26.516Z,52.40
2018-04-02T16:47:56.846Z,53.07
2018-04-02T16:50:26.174Z,54.13
2018-04-02T16:52:55.943Z,50.07
2018-04-02T16:55:25.194Z,52.87
2018-04-02T16:57:56.026Z,50.97
2018-04-02T17:00:25.653Z,49.10
2018-04-02T17:02:54.965Z,52.73
2018-04-02T17:05:25.408Z,45.60
2018-04-02T17:07:55.126Z,54.20
2018-04-02T17:10:24.516Z,50.37
2018-04-02T17:12:54.834Z,49.30
2018-04-02T17:15:23.762Z,52.23
2018-04-02T17:17:52.693Z,53.70
2018-04-02T17:20:22.435Z,50.73
2018-04-02T17:22:52.146Z,47.57
2018-04-02T17:25:21.102Z,47.87
2018-04-02T17:27:50.120Z,49.47
2018-04-02T17:30:19.029Z,48.33
2018-04-02T17:32:48.697Z,50.40
2018-04-02T17:35:17.638Z,48.73
2018-04-02T17:37:47.354Z,54.07
2018-04-02T17:40:16.296Z,51.93
2018-04-02T17:42:46.746Z,61.13
2018-04-02T17:45:16.472Z,48.50
2018-04-02T17:47:45.381Z,47.67
2018-04-02T17:50:14.311Z,43.90
2018-04-02T17:52:43.649Z,52.60
2018-04-02T17:55:13.033Z,45.93
2018-04-02T17:57:42.761Z,48.87
2018-04-02T18:00:11.708Z,47.50
2018-04-02T18:02:40.660Z,47.23
2018-04-02T18:05:10.422Z,45.50
2018-04-02T18:07:39.427Z,50.53
2018-04-02T18:10:08.688Z,43.37
2018-04-02T18:12:37.639Z,49.60
2018-04-02T18:15:06.562Z,44.43
2018-04-02T18:17:35.592Z,50.30
2018-04-02T18:20:04.951Z,39.20
2018-04-02T18:22:35.078Z,40.27
2018-04-02T18:25:04.892Z,40.83
2018-04-02T18:27:34.646Z,45.80
2018-04-02T18:30:05.308Z,45.37
2018-04-02T18:32:35.009Z,43.97
2018-04-02T18:35:06.045Z,42.50
2018-04-02T18:37:35.758Z,40.20
2018-04-02T18:40:05.500Z,39.23
2018-04-02T18:42:34.473Z,44.17
2018-04-02T18:45:03.478Z,43.13
2018-04-02T18:47:32.849Z,41.37
2018-04-02T18:50:01.908Z,44.70
2018-04-02T18:52:31.306Z,39.03
2018-04-02T18:55:01.032Z,41.70
2018-04-02T18:57:30.395Z,40.10
2018-04-02T18:59:59.408Z,41.20
2018-04-02T19:02:28.791Z,40.37
2018-04-02T19:04:58.187Z,42.23
2018-04-02T19:07:27.124Z,41.20
2018-04-02T19:09:57.014Z,35.67
2018-04-02T19:12:26.724Z,41.83
2018-04-02T19:14:56.086Z,35.70
2018-04-02T19:17:26.756Z,44.07
2018-04-02T19:19:56.530Z,39.70
2018-04-02T19:22:25.455Z,36.93
2018-04-02T19:24:55.181Z,38.87
2018-04-02T19:27:24.832Z,34.40
2018-04-02T19:29:54.172Z,37.20
2018-04-02T19:32:24.125Z,38.45
2018-04-02T19:34:53.364Z,39.67
2018-04-02T19:37:22.330Z,37.33
2018-04-02T19:39:51.287Z,38.97
2018-04-02T19:42:20.286Z,39.00
2018-04-02T19:44:49.218Z,34.97
2018-04-02T19:47:18.868Z,36.83
2018-04-02T19:49:48.126Z,36.57
2018-04-02T19:52:17.094Z,36.37
2018-04-02T19:54:46.622Z,38.40
2018-04-02T19:57:15.643Z,35.03
2018-04-02T19:59:45.585Z,40.27
2018-04-02T20:02:15.309Z,38.00
2018-04-02T20:04:44.631Z,36.50
2018-04-02T20:07:14.410Z,36.00
2018-04-02T20:09:44.472Z,34.03
2018-04-02T20:12:14.202Z,32.50
2018-04-02T20:14:43.919Z,33.30
2018-04-02T20:17:13.304Z,33.50
2018-04-02T20:19:43.259Z,36.73
2018-04-02T20:22:12.184Z,32.40
2018-04-02T20:24:41.209Z,31.97
2018-04-02T20:27:10.614Z,32.50
2018-04-02T20:29:40.325Z,31.77
2018-04-02T20:32:10.096Z,29.13
2018-04-02T20:34:39.031Z,32.47
2018-04-02T20:37:08.202Z,28.90
2018-04-02T20:39:37.168Z,29.30
2018-04-02T20:42:06.110Z,29.30
2018-04-02T20:44:36.137Z,30.43
2018-04-02T20:47:05.105Z,25.37
2018-04-02T20:49:34.801Z,32.03
2018-04-02T20:52:04.172Z,32.53
2018-04-02T20:54:33.151Z,29.77
2018-04-02T20:57:02.091Z,25.27
2018-04-02T20:59:31.235Z,28.03
2018-04-02T21:02:00.506Z,28.87
2018-04-02T21:04:30.220Z,26.83
2018-04-02T21:07:00.031Z,27.70
2018-04-02T21:09:29.368Z,27.87
2018-04-02T21:12:00.202Z,29.20
2018-04-02T21:14:29.936Z,25.03
2018-04-02T21:16:59.278Z,26.80
2018-04-02T21:19:28.223Z,26.97
2018-04-02T21:21:58.842Z,27.60
2018-04-02T21:24:28.532Z,23.57
2018-04-02T21:26:58.706Z,24.80
2018-04-02T21:29:27.701Z,26.70
2018-04-02T21:31:56.644Z,26.60
2018-04-02T21:34:25.560Z,27.53
2018-04-02T21:36:54.494Z,24.93
2018-04-02T21:39:23.409Z,23.13
2018-04-02T21:41:52.743Z,28.40
2018-04-02T21:44:21.679Z,23.40
2018-04-02T21:46:50.962Z,26.27
2018-04-02T21:49:19.931Z,22.63
2018-04-02T21:51:48.845Z,23.10
2018-04-02T21:54:18.540Z,25.20
2018-04-02T21:56:47.473Z,23.30
2018-04-02T21:59:16.381Z,28.63
2018-04-02T22:01:45.322Z,24.17
2018-04-02T22:04:14.623Z,24.90
2018-04-02T22:06:55.495Z,23.80
2018-04-02T22:09:25.219Z,25.97
2018-04-02T22:11:54.479Z,26.83
2018-04-02T22:14:23.819Z,24.10
2018-04-02T22:16:52.748Z,24.07
2018-04-02T22:19:21.652Z,25.83
2018-04-02T22:21:50.557Z,29.00
2018-04-02T22:24:19.485Z,25.13
2018-04-02T22:26:48.395Z,24.97
2018-04-02T22:29:17.304Z,24.77
2018-04-02T22:31:46.332Z,30.00
2018-04-02T22:34:15.212Z,28.60
2018-04-02T22:36:44.913Z,28.80
2018-04-02T22:39:13.820Z,25.30
2018-04-02T22:41:43.117Z,28.70
2018-04-02T22:44:12.805Z,28.03
2018-04-02T22:46:42.515Z,28.70
2018-04-02T22:49:12.942Z,34.83
2018-04-02T22:51:41.868Z,25.90
2018-04-02T22:54:10.780Z,26.90
2018-04-02T22:56:39.702Z,24.90
2018-04-02T22:59:08.611Z,25.37
2018-04-02T23:01:37.555Z,23.20
2018-04-02T23:04:06.456Z,21.90
2018-04-02T23:06:36.515Z,20.53
2018-04-02T23:09:06.183Z,23.83
2018-04-02T23:11:35.086Z,21.67
2018-04-02T23:14:04.020Z,21.37
2018-04-02T23:16:33.679Z,22.10
2018-04-02T23:19:02.575Z,17.53
2018-04-02T23:21:32.326Z,20.23
2018-04-02T23:24:01.205Z,18.27
2018-04-02T23:26:30.886Z,17.23
2018-04-02T23:29:00.214Z,18.97
2018-04-02T23:31:29.217Z,22.93
2018-04-02T23:33:58.501Z,20.13
2018-04-02T23:36:27.429Z,17.87
2018-04-02T23:38:56.743Z,17.63
2018-04-02T23:41:25.638Z,18.10
2018-04-02T23:43:54.551Z,19.30
2018-04-02T23:46:23.899Z,17.40
2018-04-02T23:48:53.558Z,18.20
2018-04-02T23:51:23.254Z,16.00
2018-04-02T23:53:52.914Z,19.63
2018-04-02T23:56:22.609Z,15.80
2018-04-02T23:58:51.518Z,20.37
